createdAt,value
2022-07-29T00:00:08.734Z,33.947265625
2022-07-29T00:01:08.753Z,34.2822265625
2022-07-29T00:02:08.742Z,34.26953125
2022-07-29T00:03:09.220Z,34.3720703125
2022-07-29T00:04:08.919Z,34.3583984375
2022-07-29T00:05:08.859Z,34.3330078125
2022-07-29T00:06:08.731Z,34.42578125
2022-07-29T00:07:11.726Z,34.42578125
2022-07-29T00:08:12.415Z,34.7734375
2022-07-29T00:09:08.849Z,34.7138671875
2022-07-29T00:10:08.727Z,34.3427734375
2022-07-29T00:11:08.745Z,34.1025390625
2022-07-29T00:12:08.740Z,34.1396484375
2022-07-29T00:13:09.095Z,34.3369140625
2022-07-29T00:14:08.744Z,34.3955078125
2022-07-29T00:15:08.723Z,34.546875
2022-07-29T00:16:08.795Z,34.6513671875
2022-07-29T00:17:08.771Z,34.5361328125
2022-07-29T00:18:14.795Z,34.685546875
2022-07-29T00:19:08.807Z,33.7802734375
2022-07-29T00:20:08.747Z,34.3251953125
2022-07-29T00:21:08.740Z,34.220703125
2022-07-29T00:22:08.760Z,34.2783203125
2022-07-29T00:23:08.749Z,33.9658203125
2022-07-29T00:24:08.818Z,33.826171875
2022-07-29T00:25:08.730Z,33.8251953125
2022-07-29T00:26:08.732Z,33.89453125
2022-07-29T00:27:08.743Z,33.9970703125
2022-07-29T00:28:09.187Z,34.1015625
2022-07-29T00:30:37.810Z,34.55859375
2022-07-29T00:31:37.822Z,34.5693359375
2022-07-29T00:32:38.261Z,34.765625
2022-07-29T00:33:37.876Z,34.3486328125
2022-07-29T00:34:37.860Z,34.4765625
2022-07-29T00:35:40.864Z,34.3017578125
2022-07-29T00:36:37.765Z,34.302734375
2022-07-29T00:37:37.994Z,34.4775390625
2022-07-29T00:38:37.799Z,34.431640625
2022-07-29T00:39:37.790Z,34.361328125
2022-07-29T00:40:37.902Z,34.3271484375
2022-07-29T00:41:37.758Z,34.3349609375
2022-07-29T00:42:37.905Z,34.392578125
2022-07-29T00:43:38.196Z,34.1953125
2022-07-29T00:44:37.850Z,34.2177734375
2022-07-29T00:45:37.901Z,34.1708984375
2022-07-29T00:46:40.884Z,34.1689453125
2022-07-29T00:47:38.132Z,34.25
2022-07-29T00:48:37.939Z,34.30859375
2022-07-29T00:49:37.906Z,34.1484375
2022-07-29T00:50:37.920Z,34.3779296875
2022-07-29T00:51:37.852Z,34.482421875
2022-07-29T00:52:38.120Z,34.1708984375
2022-07-29T00:53:37.779Z,33.916015625
2022-07-29T00:54:44.113Z,34.2177734375
2022-07-29T00:55:37.856Z,33.904296875
2022-07-29T00:56:37.872Z,33.892578125
2022-07-29T00:57:43.928Z,33.869140625
2022-07-29T00:58:38.143Z,33.7666015625
2022-07-29T00:59:37.869Z,33.7109375
2022-07-29T01:00:37.904Z,33.861328125
2022-07-29T01:01:37.842Z,34.05859375
2022-07-29T01:02:38.261Z,34.404296875
2022-07-29T01:03:37.758Z,34.310546875
2022-07-29T01:04:37.773Z,33.521484375
2022-07-29T01:05:49.642Z,34.0087890625
2022-07-29T01:06:37.782Z,33.7880859375
2022-07-29T01:07:38.230Z,33.7861328125
2022-07-29T01:08:40.927Z,33.751953125
2022-07-29T01:09:45.761Z,33.220703125
2022-07-29T01:10:37.778Z,33.501953125
2022-07-29T01:11:37.776Z,33.5927734375
2022-07-29T01:12:38.205Z,33.998046875
2022-07-29T01:13:38.121Z,33.5458984375
2022-07-29T01:14:37.883Z,33.548828125
2022-07-29T01:15:37.778Z,33.6982421875
2022-07-29T01:16:37.858Z,33.6640625
2022-07-29T01:17:38.249Z,32.6337890625
2022-07-29T01:18:37.867Z,32.9638671875
2022-07-29T01:19:40.758Z,32.8134765625
2022-07-29T01:20:37.858Z,32.4912109375
2022-07-29T01:21:37.850Z,32.4814453125
2022-07-29T01:22:38.231Z,32.4111328125
2022-07-29T01:23:37.846Z,32.4248046875
2022-07-29T01:24:37.774Z,32.4013671875
2022-07-29T01:25:40.752Z,32.365234375
2022-07-29T01:26:37.884Z,32.423828125
2022-07-29T01:27:38.211Z,32.3203125
2022-07-29T01:28:37.889Z,32.35546875
2022-07-29T01:29:38.767Z,32.599609375
2022-07-29T01:30:37.781Z,32.541015625
2022-07-29T01:31:40.271Z,32.6328125
2022-07-29T01:32:38.125Z,32.6787109375
2022-07-29T01:33:37.858Z,32.8974609375
2022-07-29T01:34:37.774Z,32.9091796875
2022-07-29T01:35:37.785Z,32.619140625
2022-07-29T01:36:40.771Z,32.7822265625
2022-07-29T01:37:37.862Z,32.876953125
2022-07-29T01:38:37.870Z,32.482421875
2022-07-29T01:39:37.765Z,32.8173828125
2022-07-29T01:40:37.866Z,32.8505859375
2022-07-29T01:41:37.909Z,33.0107421875
2022-07-29T01:42:38.152Z,33.1025390625
2022-07-29T01:43:38.196Z,33.1357421875
2022-07-29T01:44:37.869Z,33.1923828125
2022-07-29T01:45:37.758Z,33.169921875
2022-07-29T01:46:37.877Z,33.306640625
2022-07-29T01:47:43.820Z,33.4443359375
2022-07-29T01:48:38.039Z,33.408203125
2022-07-29T01:49:37.908Z,33.6416015625
2022-07-29T01:50:37.851Z,33.8837890625
2022-07-29T01:51:37.779Z,34.0224609375
2022-07-29T01:52:38.257Z,34.056640625
2022-07-29T01:53:38.377Z,34.1591796875
2022-07-29T01:54:37.767Z,34.251953125
2022-07-29T01:55:37.772Z,34.263671875
2022-07-29T01:56:37.872Z,34.251953125
2022-07-29T01:57:37.882Z,34.44921875
2022-07-29T01:58:43.803Z,34.3896484375
2022-07-29T01:59:37.881Z,34.689453125
2022-07-29T02:00:37.779Z,34.9287109375
2022-07-29T02:01:37.815Z,34.9150390625
2022-07-29T02:02:38.201Z,35.1005859375
2022-07-29T02:03:37.882Z,35.0068359375
2022-07-29T02:04:37.835Z,35.2607421875
2022-07-29T02:05:37.865Z,35.2373046875
2022-07-29T02:06:37.759Z,35.443359375
2022-07-29T02:07:38.226Z,35.603515625
2022-07-29T02:08:37.869Z,35.77734375
2022-07-29T02:09:40.813Z,35.904296875
2022-07-29T02:10:37.889Z,35.9482421875
2022-07-29T02:11:37.780Z,36.2587890625
2022-07-29T02:12:38.198Z,36.4755859375
2022-07-29T02:13:38.121Z,36.587890625
2022-07-29T02:14:37.854Z,36.64453125
2022-07-29T02:15:37.762Z,36.7705078125
2022-07-29T02:16:37.824Z,36.966796875
2022-07-29T02:17:38.745Z,37.068359375
2022-07-29T02:18:37.866Z,37.18359375
2022-07-29T02:19:37.908Z,37.435546875
2022-07-29T02:20:40.875Z,37.5830078125
2022-07-29T02:21:37.870Z,37.755859375
2022-07-29T02:22:38.203Z,37.8232421875
2022-07-29T02:23:45.156Z,37.9736328125
2022-07-29T02:24:37.786Z,37.9951171875
2022-07-29T02:25:38.354Z,38.15625
2022-07-29T02:26:37.775Z,38.2021484375
2022-07-29T02:27:38.250Z,38.3271484375
2022-07-29T02:28:38.116Z,38.5693359375
2022-07-29T02:29:37.881Z,38.61328125
2022-07-29T02:30:37.782Z,38.7041015625
2022-07-29T02:31:40.778Z,38.853515625
2022-07-29T02:32:37.873Z,38.9560546875
2022-07-29T02:33:38.190Z,39.1171875
2022-07-29T02:34:37.881Z,39.0712890625
2022-07-29T02:35:37.832Z,39.267578125
2022-07-29T02:36:37.772Z,39.255859375
2022-07-29T02:37:37.776Z,39.4619140625
2022-07-29T02:38:38.189Z,39.4384765625
2022-07-29T02:39:37.874Z,39.6220703125
2022-07-29T02:40:37.767Z,39.7470703125
2022-07-29T02:41:37.784Z,39.8046875
2022-07-29T02:42:40.785Z,39.734375
2022-07-29T02:43:38.115Z,39.919921875
2022-07-29T02:44:37.864Z,40.1396484375
2022-07-29T02:45:37.755Z,40.25390625
2022-07-29T02:46:37.833Z,40.3681640625
2022-07-29T02:47:42.022Z,40.3681640625
2022-07-29T02:48:38.259Z,40.724609375
2022-07-29T02:49:37.765Z,40.4345703125
2022-07-29T02:50:37.845Z,40.6083984375
2022-07-29T02:51:43.644Z,40.6181640625
2022-07-29T02:52:37.853Z,40.9638671875
2022-07-29T02:53:43.832Z,40.9189453125
2022-07-29T02:54:37.833Z,40.943359375
2022-07-29T02:55:37.769Z,40.919921875
2022-07-29T02:56:37.848Z,41.0458984375
2022-07-29T02:57:54.424Z,41.091796875
2022-07-29T02:58:38.193Z,41.20703125
2022-07-29T02:59:37.770Z,41.3681640625
2022-07-29T03:00:37.775Z,41.390625
2022-07-29T03:01:37.842Z,41.4716796875
2022-07-29T03:02:37.861Z,41.16015625
2022-07-29T03:03:37.893Z,41.1025390625
2022-07-29T03:04:40.813Z,41.35546875
2022-07-29T03:05:37.862Z,41.341796875
2022-07-29T03:06:38.404Z,41.2607421875
2022-07-29T03:07:37.758Z,41.400390625
2022-07-29T03:08:38.264Z,41.330078125
2022-07-29T03:09:37.854Z,41.28515625
2022-07-29T03:10:37.730Z,41.1943359375
2022-07-29T03:11:46.209Z,41.2607421875
2022-07-29T03:12:37.767Z,41.431640625
2022-07-29T03:13:38.122Z,41.48828125
2022-07-29T03:14:37.841Z,41.8076171875
2022-07-29T03:15:40.925Z,41.9189453125
2022-07-29T03:16:41.142Z,42.205078125
2022-07-29T03:17:37.783Z,42.4228515625
2022-07-29T03:18:38.122Z,42.6162109375
2022-07-29T03:19:37.862Z,42.7861328125
2022-07-29T03:20:37.773Z,43.1533203125
2022-07-29T03:21:37.776Z,43.166015625
2022-07-29T03:22:37.769Z,43.15234375
2022-07-29T03:23:38.234Z,43.341796875
2022-07-29T03:24:37.921Z,43.650390625
2022-07-29T03:25:37.754Z,43.8076171875
2022-07-29T03:26:40.890Z,44.1396484375
2022-07-29T03:27:37.844Z,44.3681640625
2022-07-29T03:28:37.806Z,44.5595703125
2022-07-29T03:29:37.776Z,44.8916015625
2022-07-29T03:30:37.773Z,45.185546875
2022-07-29T03:31:37.785Z,45.46875
2022-07-29T03:32:37.893Z,45.8779296875
2022-07-29T03:33:38.199Z,46.2294921875
2022-07-29T03:34:37.956Z,46.6494140625
2022-07-29T03:35:37.749Z,47.0703125
2022-07-29T03:36:37.905Z,47.0810546875
2022-07-29T03:37:40.766Z,47.125
2022-07-29T03:38:38.125Z,47.287109375
2022-07-29T03:39:37.840Z,47.37890625
2022-07-29T03:40:37.754Z,47.3896484375
2022-07-29T03:41:37.759Z,47.43359375
2022-07-29T03:42:37.770Z,47.6181640625
2022-07-29T03:43:38.128Z,47.888671875
2022-07-29T03:44:37.775Z,48.1943359375
2022-07-29T03:45:37.766Z,48.41796875
2022-07-29T03:46:37.896Z,48.587890625
2022-07-29T03:47:50.063Z,48.8486328125
2022-07-29T03:48:43.935Z,49.140625
2022-07-29T03:49:37.873Z,49.2314453125
2022-07-29T03:50:37.888Z,49.537109375
2022-07-29T03:51:37.771Z,49.4912109375
2022-07-29T03:52:37.907Z,49.765625
2022-07-29T03:53:38.193Z,49.943359375
2022-07-29T03:54:37.902Z,50.0791015625
2022-07-29T03:55:37.891Z,50.1904296875
2022-07-29T03:56:37.775Z,50.5087890625
2022-07-29T03:57:37.759Z,50.458984375
2022-07-29T03:58:38.132Z,50.5615234375
2022-07-29T03:59:40.779Z,50.60546875
2022-07-29T04:00:37.869Z,50.705078125
2022-07-29T04:01:37.843Z,50.962890625
2022-07-29T04:02:37.770Z,51.0166015625
2022-07-29T04:03:38.259Z,51.23046875
2022-07-29T04:04:37.834Z,50.939453125
2022-07-29T04:05:37.780Z,50.9423828125
2022-07-29T04:06:37.773Z,51.62109375
2022-07-29T04:07:37.773Z,52.029296875
2022-07-29T04:08:38.193Z,52.27734375
2022-07-29T04:09:37.862Z,52.0224609375
2022-07-29T04:10:40.769Z,52.09765625
2022-07-29T04:12:01.877Z,51.9921875
2022-07-29T04:12:37.776Z,52.2451171875
2022-07-29T04:13:37.771Z,52.046875
2022-07-29T04:14:37.776Z,52.21875
2022-07-29T04:15:37.803Z,51.8662109375
2022-07-29T04:16:37.819Z,52.0693359375
2022-07-29T04:17:37.763Z,52.2158203125
2022-07-29T04:18:38.134Z,51.541015625
2022-07-29T04:19:37.855Z,51.9970703125
2022-07-29T04:20:37.747Z,51.9501953125
2022-07-29T04:21:40.835Z,51.958984375
2022-07-29T04:22:37.851Z,51.982421875
2022-07-29T04:23:47.520Z,51.833984375
2022-07-29T04:24:37.867Z,51.8798828125
2022-07-29T04:25:37.902Z,52.00390625
2022-07-29T04:26:37.771Z,51.9453125
2022-07-29T04:27:37.778Z,51.740234375
2022-07-29T04:28:38.196Z,51.478515625
2022-07-29T04:29:37.860Z,50.892578125
2022-07-29T04:30:37.765Z,51.3740234375
2022-07-29T04:31:37.836Z,51.5419921875
2022-07-29T04:32:40.761Z,51.359375
2022-07-29T04:33:38.114Z,51.173828125
2022-07-29T04:34:37.868Z,51.015625
2022-07-29T04:35:38.653Z,50.9013671875
2022-07-29T04:36:37.876Z,50.8916015625
2022-07-29T04:37:37.773Z,50.98046875
2022-07-29T04:38:38.121Z,50.8896484375
2022-07-29T04:39:37.746Z,50.900390625
2022-07-29T04:40:38.697Z,50.7978515625
2022-07-29T04:41:37.829Z,50.8095703125
2022-07-29T04:42:41.981Z,50.923828125
2022-07-29T04:43:43.893Z,50.4140625
2022-07-29T04:44:39.451Z,51.1796875
2022-07-29T04:45:37.772Z,50.892578125
2022-07-29T04:46:37.856Z,50.5390625
2022-07-29T04:47:37.768Z,50.78125
2022-07-29T04:48:38.216Z,50.712890625
2022-07-29T04:49:37.906Z,50.6376953125
2022-07-29T04:50:37.741Z,50.2734375
2022-07-29T04:51:37.782Z,49.9599609375
2022-07-29T04:52:37.867Z,49.7822265625
2022-07-29T04:53:37.789Z,49.8310546875
2022-07-29T04:54:40.774Z,49.4462890625
2022-07-29T04:55:39.088Z,49.0849609375
2022-07-29T04:56:37.764Z,48.9306640625
2022-07-29T04:57:37.754Z,48.775390625
2022-07-29T04:58:38.196Z,48.57421875
2022-07-29T04:59:37.962Z,48.22265625
2022-07-29T05:00:37.771Z,47.9755859375
2022-07-29T05:01:37.858Z,47.8974609375
2022-07-29T05:02:37.915Z,47.5126953125
2022-07-29T05:03:38.120Z,47.3232421875
2022-07-29T05:04:37.837Z,47.052734375
2022-07-29T05:05:40.796Z,46.7802734375
2022-07-29T05:06:37.985Z,46.6220703125
2022-07-29T05:07:37.856Z,46.373046875
2022-07-29T05:08:37.798Z,46.228515625
2022-07-29T05:09:37.863Z,46.056640625
2022-07-29T05:10:37.770Z,46.0244140625
2022-07-29T05:11:37.763Z,45.9248046875
2022-07-29T05:12:37.878Z,46.029296875
2022-07-29T05:13:46.082Z,46.0205078125
2022-07-29T05:14:37.842Z,45.865234375
2022-07-29T05:15:37.884Z,45.58203125
2022-07-29T05:16:40.787Z,45.4130859375
2022-07-29T05:17:37.852Z,45.4833984375
2022-07-29T05:18:38.196Z,45.3740234375
2022-07-29T05:19:39.683Z,44.9775390625
2022-07-29T05:20:37.773Z,44.5322265625
2022-07-29T05:21:37.855Z,44.3740234375
2022-07-29T05:22:37.769Z,44.390625
2022-07-29T05:23:38.199Z,44.19921875
2022-07-29T05:24:37.855Z,44.154296875
2022-07-29T05:25:43.192Z,44.1923828125
2022-07-29T05:26:37.852Z,43.5380859375
2022-07-29T05:27:41.177Z,43.3447265625
2022-07-29T05:28:38.156Z,43.080078125
2022-07-29T05:29:43.737Z,42.9658203125
2022-07-29T05:30:37.869Z,43.1416015625
2022-07-29T05:31:37.858Z,42.8876953125
2022-07-29T05:32:38.261Z,42.474609375
2022-07-29T05:33:37.774Z,42.6279296875
2022-07-29T05:34:37.776Z,42.4599609375
2022-07-29T05:35:37.857Z,42.126953125
2022-07-29T05:36:37.863Z,42.3212890625
2022-07-29T05:37:38.189Z,42.5625
2022-07-29T05:38:37.886Z,42.5537109375
2022-07-29T05:39:47.288Z,42.0078125
2022-07-29T05:40:37.778Z,42.060546875
2022-07-29T05:41:37.772Z,41.7509765625
2022-07-29T05:42:38.263Z,41.0400390625
2022-07-29T05:43:43.841Z,41.0439453125
2022-07-29T05:44:37.863Z,40.8154296875
2022-07-29T05:45:49.827Z,40.474609375
2022-07-29T05:46:37.808Z,39.9306640625
2022-07-29T05:47:38.278Z,36.94921875
2022-07-29T05:48:37.906Z,32.8828125
2022-07-29T05:49:37.859Z,28.884765625
2022-07-29T05:50:37.838Z,25.4638671875
2022-07-29T05:51:37.763Z,22.90234375
2022-07-29T05:52:38.130Z,20.564453125
2022-07-29T05:53:38.864Z,18.5205078125
2022-07-29T05:54:37.861Z,17.01953125
2022-07-29T05:55:37.772Z,14.6201171875
2022-07-29T05:56:37.845Z,13.009765625
2022-07-29T05:57:37.773Z,11.3916015625
2022-07-29T05:58:38.192Z,9.724609375
2022-07-29T05:59:40.753Z,8.505859375
2022-07-29T06:00:37.843Z,9.0498046875
2022-07-29T06:01:37.786Z,10.1162109375
2022-07-29T06:02:37.775Z,10.279296875
2022-07-29T06:03:38.113Z,9.7607421875
2022-07-29T06:04:37.871Z,9.0478515625
2022-07-29T06:05:37.775Z,9.03515625
2022-07-29T06:06:37.770Z,8.361328125
2022-07-29T06:07:37.773Z,7.9287109375
2022-07-29T06:08:38.186Z,8.703125
2022-07-29T06:09:37.839Z,7.669921875
2022-07-29T06:10:40.762Z,7.5869140625
2022-07-29T06:11:37.895Z,6.4091796875
2022-07-29T06:12:37.755Z,5.095703125
2022-07-29T06:13:37.911Z,4.5107421875
2022-07-29T06:14:37.859Z,4.3193359375
2022-07-29T06:15:37.811Z,3.5517578125
2022-07-29T06:16:37.838Z,3.5390625
2022-07-29T06:17:37.765Z,4.1376953125
2022-07-29T06:18:38.121Z,5.033203125
2022-07-29T06:19:37.859Z,5.8837890625
2022-07-29T06:20:37.771Z,4.62890625
2022-07-29T06:21:38.668Z,3.791015625
2022-07-29T06:22:37.755Z,3.9697265625
2022-07-29T06:23:38.198Z,2.7451171875
2022-07-29T06:24:37.869Z,1.8310546875
2022-07-29T06:25:37.893Z,2.7802734375
2022-07-29T06:26:40.811Z,2.50390625
2022-07-29T06:27:38.120Z,3.427734375
2022-07-29T06:28:38.117Z,3.0078125
2022-07-29T06:29:37.879Z,5.244140625
2022-07-29T06:30:37.786Z,5.947265625
2022-07-29T06:31:37.757Z,7.5048828125
2022-07-29T06:32:42.736Z,8.763671875
2022-07-29T06:33:37.772Z,9.26171875
2022-07-29T06:34:37.755Z,9.2158203125
2022-07-29T06:35:42.331Z,7.3291015625
2022-07-29T06:36:37.932Z,8.443359375
2022-07-29T06:37:41.186Z,9.1337890625
2022-07-29T06:38:41.994Z,8.033203125
2022-07-29T06:39:37.792Z,5.9140625
2022-07-29T06:40:37.872Z,5.3896484375
2022-07-29T06:41:37.771Z,5.830078125
2022-07-29T06:42:38.412Z,6.9951171875
2022-07-29T06:43:51.029Z,7.2451171875
2022-07-29T06:44:37.777Z,7.29296875
2022-07-29T06:45:37.772Z,6.84375
2022-07-29T06:46:37.921Z,4.685546875
2022-07-29T06:47:38.123Z,3.6796875
2022-07-29T06:48:40.859Z,5.103515625
2022-07-29T06:49:37.858Z,3.416015625
2022-07-29T06:50:37.915Z,2.8896484375
2022-07-29T06:51:37.863Z,2.3486328125
2022-07-29T06:52:37.868Z,3.189453125
2022-07-29T06:53:38.193Z,1.5791015625
2022-07-29T06:54:37.771Z,0
2022-07-29T06:55:37.921Z,0.216796875
2022-07-29T06:56:38.489Z,1.0126953125
2022-07-29T06:57:37.771Z,2.0478515625
2022-07-29T06:58:38.199Z,1.2177734375
2022-07-29T06:59:40.776Z,0.904296875
2022-07-29T07:00:37.848Z,0
2022-07-29T07:01:37.894Z,0
2022-07-29T07:02:37.944Z,0
2022-07-29T07:03:38.196Z,0
2022-07-29T07:04:37.863Z,0
2022-07-29T07:05:37.767Z,0.783203125
2022-07-29T07:06:37.814Z,4.216796875
2022-07-29T07:07:37.872Z,5.0205078125
2022-07-29T07:08:38.198Z,3.296875
2022-07-29T07:09:40.494Z,2.4091796875
2022-07-29T07:10:40.774Z,0.83203125
2022-07-29T07:11:37.858Z,0.083984375
2022-07-29T07:12:37.805Z,0
2022-07-29T07:13:38.195Z,0
2022-07-29T07:14:37.832Z,0
2022-07-29T07:15:39.726Z,0
2022-07-29T07:16:37.834Z,0
2022-07-29T07:17:37.782Z,0
2022-07-29T07:18:38.194Z,0
2022-07-29T07:19:37.787Z,0
2022-07-29T07:20:37.776Z,0
2022-07-29T07:21:40.788Z,0
2022-07-29T07:22:38.999Z,0
2022-07-29T07:23:38.242Z,0
2022-07-29T07:24:37.836Z,0
2022-07-29T07:25:37.758Z,0
2022-07-29T07:26:37.848Z,0
2022-07-29T07:27:37.773Z,0
2022-07-29T07:28:37.899Z,0
2022-07-29T07:29:37.856Z,0
2022-07-29T07:30:37.774Z,0
2022-07-29T07:31:37.826Z,0
2022-07-29T07:32:40.771Z,0
2022-07-29T07:33:37.879Z,0
2022-07-29T07:34:37.852Z,0.01171875
2022-07-29T07:35:37.753Z,0
2022-07-29T07:36:37.777Z,0
2022-07-29T07:37:37.762Z,1.3623046875
2022-07-29T07:38:38.130Z,0.4462890625
2022-07-29T07:39:37.759Z,0
2022-07-29T07:40:37.765Z,0
2022-07-29T07:41:37.894Z,0
2022-07-29T07:42:37.859Z,0
2022-07-29T07:43:43.857Z,0
2022-07-29T07:44:57.371Z,0
2022-07-29T07:45:37.915Z,0
2022-07-29T07:46:37.788Z,0
2022-07-29T07:47:37.852Z,0
2022-07-29T07:48:38.268Z,0
2022-07-29T07:49:37.891Z,0
2022-07-29T07:50:37.802Z,0
2022-07-29T07:51:37.760Z,0
2022-07-29T07:52:37.771Z,0
2022-07-29T07:53:38.195Z,0
2022-07-29T07:54:40.796Z,0
2022-07-29T07:56:07.706Z,0
2022-07-29T07:56:37.778Z,0
2022-07-29T07:57:37.772Z,0
2022-07-29T07:58:38.211Z,0
2022-07-29T07:59:37.939Z,0
2022-07-29T08:00:37.778Z,1.0244140625
2022-07-29T08:01:55.270Z,4.396484375
2022-07-29T08:02:37.807Z,7.5908203125
2022-07-29T08:03:38.194Z,10.041015625
2022-07-29T08:04:37.839Z,12.09375
2022-07-29T08:05:40.850Z,14.3740234375
2022-07-29T08:06:37.878Z,16.076171875
2022-07-29T08:07:37.846Z,17.478515625
2022-07-29T08:08:38.199Z,18.80859375
2022-07-29T08:09:37.845Z,19.3701171875
2022-07-29T08:10:37.768Z,19.6884765625
2022-07-29T08:11:37.793Z,20.755859375
2022-07-29T08:12:37.762Z,21.5537109375
2022-07-29T08:13:38.194Z,22.1650390625
2022-07-29T08:14:37.966Z,23.2451171875
2022-07-29T08:15:37.769Z,23.4521484375
2022-07-29T08:16:40.914Z,23.3955078125
2022-07-29T08:17:37.832Z,22.900390625
2022-07-29T08:18:38.192Z,21.9677734375
2022-07-29T08:19:37.963Z,21.138671875
2022-07-29T08:20:37.791Z,21.0126953125
2022-07-29T08:21:37.762Z,20.630859375
2022-07-29T08:22:37.763Z,20.419921875
2022-07-29T08:23:46.058Z,20.2666015625
2022-07-29T08:24:37.852Z,20.2314453125
2022-07-29T08:25:38.742Z,20.1005859375
2022-07-29T08:26:37.775Z,20.21484375
2022-07-29T08:27:43.849Z,20.71875
2022-07-29T08:28:38.127Z,20.8134765625
2022-07-29T08:29:37.826Z,20.9453125
2022-07-29T08:30:37.865Z,21.0888671875
2022-07-29T08:31:37.825Z,21.08984375
2022-07-29T08:32:53.357Z,20.8671875
2022-07-29T08:33:37.867Z,20.92578125
2022-07-29T08:34:37.762Z,20.7373046875
2022-07-29T08:35:37.764Z,20.890625
2022-07-29T08:36:37.763Z,21.26171875
2022-07-29T08:37:37.799Z,21.50390625
2022-07-29T08:38:40.773Z,21.271484375
2022-07-29T08:39:37.841Z,21.052734375
2022-07-29T08:40:37.758Z,21.1376953125
2022-07-29T08:41:37.784Z,21.67578125
2022-07-29T08:42:37.747Z,21.7353515625
2022-07-29T08:43:37.784Z,22.1171875
2022-07-29T08:44:37.757Z,22.271484375
2022-07-29T08:45:37.901Z,21.4404296875
2022-07-29T08:46:37.770Z,21.3583984375
2022-07-29T08:47:38.193Z,21.3583984375
2022-07-29T08:48:37.883Z,22.369140625
2022-07-29T08:49:40.780Z,22.69140625
2022-07-29T08:50:37.869Z,23.1796875
2022-07-29T08:51:49.314Z,23.1474609375
2022-07-29T08:52:37.770Z,23.1884765625
2022-07-29T08:53:37.767Z,22.921875
2022-07-29T08:54:37.778Z,23.02734375
2022-07-29T08:55:37.873Z,23.0986328125
2022-07-29T08:56:37.778Z,23.115234375
2022-07-29T08:57:38.192Z,22.9326171875
2022-07-29T08:58:38.322Z,22.7236328125
2022-07-29T08:59:37.867Z,22.5185546875
2022-07-29T09:00:40.869Z,22.4482421875
2022-07-29T09:01:42.698Z,22.1572265625
2022-07-29T09:02:37.755Z,22.0546875
2022-07-29T09:03:37.862Z,22.0693359375
2022-07-29T09:04:37.761Z,22.0927734375
2022-07-29T09:05:40.677Z,22.16015625
2022-07-29T09:06:37.761Z,22.2060546875
2022-07-29T09:07:38.196Z,22.1142578125
2022-07-29T09:08:37.846Z,21.861328125
2022-07-29T09:09:37.778Z,21.703125
2022-07-29T09:10:37.922Z,21.2822265625
2022-07-29T09:11:40.774Z,21.3203125
2022-07-29T09:12:38.410Z,21.78515625
2022-07-29T09:13:38.120Z,21.70703125
2022-07-29T09:14:37.913Z,21.7060546875
2022-07-29T09:15:37.766Z,22.2470703125
2022-07-29T09:16:52.789Z,23.0009765625
2022-07-29T09:17:38.182Z,23.373046875
2022-07-29T09:18:37.794Z,23.421875
2022-07-29T09:19:37.775Z,23.283203125
2022-07-29T09:20:37.764Z,23.3095703125
2022-07-29T09:21:37.846Z,22.8017578125
2022-07-29T09:22:42.272Z,22.4404296875
2022-07-29T09:23:37.859Z,22.78125
2022-07-29T09:24:37.764Z,22.7353515625
2022-07-29T09:25:37.861Z,22.396484375
2022-07-29T09:26:37.749Z,21.921875
2022-07-29T09:27:38.187Z,21.5986328125
2022-07-29T09:28:38.129Z,21.306640625
2022-07-29T09:29:37.775Z,21.2841796875
2022-07-29T09:30:37.899Z,21.193359375
2022-07-29T09:31:37.865Z,21.14453125
2022-07-29T09:32:38.194Z,20.8994140625
2022-07-29T09:33:40.791Z,21.1201171875
2022-07-29T09:34:37.859Z,20.9345703125
2022-07-29T09:35:37.770Z,20.7060546875
2022-07-29T09:36:37.777Z,20.216796875
2022-07-29T09:37:38.192Z,19.97265625
2022-07-29T09:38:37.843Z,19.7412109375
2022-07-29T09:39:37.770Z,19.6279296875
2022-07-29T09:40:37.788Z,19.69921875
2022-07-29T09:41:37.827Z,19.2626953125
2022-07-29T09:42:38.193Z,19.7646484375
2022-07-29T09:43:37.872Z,19.671875
2022-07-29T09:44:40.834Z,19.591796875
2022-07-29T09:45:37.981Z,19.3310546875
2022-07-29T09:46:37.796Z,19.87890625
2022-07-29T09:47:38.208Z,19.634765625
2022-07-29T09:48:38.012Z,19.205078125
2022-07-29T09:49:37.762Z,19.01953125
2022-07-29T09:50:37.870Z,19.5361328125
2022-07-29T09:51:38.590Z,19.8291015625
2022-07-29T09:52:37.767Z,20.109375
2022-07-29T09:53:37.763Z,20.0859375
2022-07-29T09:54:37.858Z,19.7392578125
2022-07-29T09:55:40.753Z,19.1181640625
2022-07-29T09:56:37.845Z,18.9453125
2022-07-29T09:57:38.197Z,18.2314453125
2022-07-29T09:58:37.853Z,17.91796875
2022-07-29T09:59:37.747Z,17.6015625
2022-07-29T10:00:37.873Z,18.0537109375
2022-07-29T10:01:37.905Z,18.921875
2022-07-29T10:02:37.771Z,18.734375
2022-07-29T10:03:37.840Z,18.546875
2022-07-29T10:04:37.864Z,18.474609375
2022-07-29T10:05:37.777Z,18.416015625
2022-07-29T10:06:37.773Z,18.4384765625
2022-07-29T10:07:38.251Z,18.44140625
2022-07-29T10:08:37.841Z,18.7802734375
2022-07-29T10:09:37.769Z,18.6474609375
2022-07-29T10:10:37.765Z,18.6845703125
2022-07-29T10:11:49.081Z,18.46484375
2022-07-29T10:12:38.137Z,18.24609375
2022-07-29T10:13:38.127Z,18.291015625
2022-07-29T10:14:37.855Z,19.037109375
2022-07-29T10:15:37.766Z,19.572265625
2022-07-29T10:16:37.808Z,19.783203125
2022-07-29T10:17:37.835Z,19.5517578125
2022-07-29T10:18:37.777Z,18.98046875
2022-07-29T10:19:37.768Z,18.83984375
2022-07-29T10:20:37.836Z,18.4677734375
2022-07-29T10:21:37.854Z,17.76953125
2022-07-29T10:22:52.400Z,17.138671875
2022-07-29T10:23:46.287Z,16.3564453125
2022-07-29T10:24:37.774Z,15.4658203125
2022-07-29T10:25:37.780Z,15.126953125
2022-07-29T10:26:37.840Z,14.740234375
2022-07-29T10:27:43.846Z,14.0908203125
2022-07-29T10:28:38.127Z,13.6328125
2022-07-29T10:29:37.763Z,12.9462890625
2022-07-29T10:30:37.786Z,12.8515625
2022-07-29T10:31:37.933Z,12.8046875
2022-07-29T10:32:38.193Z,13.240234375
2022-07-29T10:33:37.810Z,13.453125
2022-07-29T10:34:37.760Z,13.1591796875
2022-07-29T10:35:37.781Z,13.150390625
2022-07-29T10:36:37.761Z,12.8330078125
2022-07-29T10:37:38.245Z,12.642578125
2022-07-29T10:38:40.775Z,12.654296875
2022-07-29T10:39:44.602Z,13.03125
2022-07-29T10:40:37.775Z,13.5849609375
2022-07-29T10:41:44.090Z,13.962890625
2022-07-29T10:42:38.208Z,14.578125
2022-07-29T10:43:38.123Z,15.486328125
2022-07-29T10:44:37.772Z,15.462890625
2022-07-29T10:45:37.776Z,15.2958984375
2022-07-29T10:46:37.926Z,15.5087890625
2022-07-29T10:47:37.772Z,15.0625